DAAT/TMR METAR and TAF weather

Enter ICAO airport designator
Station Type Date Time Source
DAAT METAR 2019/04/18 21:00 UTC NOAA

DAAT 182100Z 15006KT CAVOK 21/// Q1020


Station Type Date Time Source
DAAT Decoded METAR 2019/04/18 21:00 UTC NOAA

Tamanrasset / Aguenna, Algeria (DAAT) 22-49N 005-28E
Apr 18, 2019 - 05:00 PM EDT / 2019.04.18 2100 UTC
Wind: from the SSE (150 degrees) at 7 MPH (6 KT):0
Visibility: greater than 7 mile(s):0
Temperature: 69 F (21 C)
Pressure (altimeter): 30.12 in. Hg (1020 hPa)
ob: DAAT 182100Z 15006KT CAVOK 21/// Q1020
cycle: 21

Station Type Date Time Source
DAAT TAF 2019/04/18 18:40 UTC NOAA

TAF DAAT 181700Z 1818/1918 18010KT CAVOK

Example: see airport list